sensor_id;sensor_type;location;lat;lon;timestamp;P1;durP1;ratioP1;P2;durP2;ratioP2
14078;SDS011;7115;50.150;8.568;2023-05-16T00:01:59;24.73;;;17.23;;
14078;SDS011;7115;50.150;8.568;2023-05-16T00:04:27;27.80;;;17.97;;
14078;SDS011;7115;50.150;8.568;2023-05-16T00:06:55;24.57;;;16.90;;
14078;SDS011;7115;50.150;8.568;2023-05-16T00:09:21;24.10;;;17.07;;
14078;SDS011;7115;50.150;8.568;2023-05-16T00:11:49;26.27;;;17.23;;
14078;SDS011;7115;50.150;8.568;2023-05-16T00:14:16;23.93;;;16.67;;
14078;SDS011;7115;50.150;8.568;2023-05-16T00:16:44;20.83;;;16.37;;
14078;SDS011;7115;50.150;8.568;2023-05-16T00:19:12;26.27;;;16.67;;
14078;SDS011;7115;50.150;8.568;2023-05-16T00:21:40;22.40;;;17.40;;
14078;SDS011;7115;50.150;8.568;2023-05-16T00:24:07;23.47;;;16.43;;
14078;SDS011;7115;50.150;8.568;2023-05-16T00:26:34;23.80;;;16.90;;
14078;SDS011;7115;50.150;8.568;2023-05-16T00:29:01;25.10;;;17.30;;
14078;SDS011;7115;50.150;8.568;2023-05-16T00:31:28;23.60;;;17.07;;
14078;SDS011;7115;50.150;8.568;2023-05-16T00:33:55;26.60;;;17.90;;
14078;SDS011;7115;50.150;8.568;2023-05-16T00:36:22;27.20;;;17.03;;
14078;SDS011;7115;50.150;8.568;2023-05-16T00:38:50;24.53;;;17.10;;
14078;SDS011;7115;50.150;8.568;2023-05-16T00:41:17;24.20;;;17.37;;
14078;SDS011;7115;50.150;8.568;2023-05-16T00:43:44;22.13;;;16.90;;
14078;SDS011;7115;50.150;8.568;2023-05-16T00:46:11;23.43;;;16.37;;
14078;SDS011;7115;50.150;8.568;2023-05-16T00:48:38;22.60;;;15.57;;
14078;SDS011;7115;50.150;8.568;2023-05-16T00:51:05;20.23;;;14.83;;
14078;SDS011;7115;50.150;8.568;2023-05-16T00:53:34;20.00;;;15.20;;
14078;SDS011;7115;50.150;8.568;2023-05-16T00:56:03;20.10;;;14.40;;
14078;SDS011;7115;50.150;8.568;2023-05-16T00:58:32;18.43;;;13.20;;
14078;SDS011;7115;50.150;8.568;2023-05-16T01:00:59;19.80;;;13.60;;
14078;SDS011;7115;50.150;8.568;2023-05-16T01:03:29;19.50;;;13.93;;
14078;SDS011;7115;50.150;8.568;2023-05-16T01:05:57;20.63;;;14.37;;
14078;SDS011;7115;50.150;8.568;2023-05-16T01:08:24;19.67;;;13.50;;
14078;SDS011;7115;50.150;8.568;2023-05-16T01:10:53;17.47;;;13.57;;
14078;SDS011;7115;50.150;8.568;2023-05-16T01:13:29;18.63;;;12.23;;
14078;SDS011;7115;50.150;8.568;2023-05-16T01:16:04;19.13;;;12.93;;
14078;SDS011;7115;50.150;8.568;2023-05-16T01:18:38;19.03;;;12.37;;
14078;SDS011;7115;50.150;8.568;2023-05-16T01:21:14;16.63;;;11.80;;
14078;SDS011;7115;50.150;8.568;2023-05-16T01:23:48;17.90;;;11.37;;
14078;SDS011;7115;50.150;8.568;2023-05-16T01:26:20;16.53;;;11.50;;
14078;SDS011;7115;50.150;8.568;2023-05-16T01:28:48;17.23;;;12.50;;
14078;SDS011;7115;50.150;8.568;2023-05-16T01:31:17;17.33;;;12.33;;
14078;SDS011;7115;50.150;8.568;2023-05-16T01:33:44;19.43;;;12.23;;
14078;SDS011;7115;50.150;8.568;2023-05-16T01:36:14;19.10;;;13.77;;
14078;SDS011;7115;50.150;8.568;2023-05-16T01:38:51;18.33;;;12.93;;
14078;SDS011;7115;50.150;8.568;2023-05-16T01:41:29;16.57;;;12.17;;
14078;SDS011;7115;50.150;8.568;2023-05-16T01:44:06;17.87;;;12.53;;
14078;SDS011;7115;50.150;8.568;2023-05-16T01:46:37;17.57;;;12.33;;
14078;SDS011;7115;50.150;8.568;2023-05-16T01:49:10;19.03;;;12.87;;
14078;SDS011;7115;50.150;8.568;2023-05-16T01:51:43;19.40;;;13.33;;
14078;SDS011;7115;50.150;8.568;2023-05-16T01:54:15;18.43;;;13.27;;
14078;SDS011;7115;50.150;8.568;2023-05-16T01:56:48;20.10;;;13.83;;
14078;SDS011;7115;50.150;8.568;2023-05-16T01:59:18;17.17;;;12.87;;
14078;SDS011;7115;50.150;8.568;2023-05-16T02:01:47;20.77;;;13.90;;
14078;SDS011;7115;50.150;8.568;2023-05-16T02:04:14;18.73;;;13.27;;
14078;SDS011;7115;50.150;8.568;2023-05-16T02:06:42;17.63;;;13.13;;
14078;SDS011;7115;50.150;8.568;2023-05-16T02:09:09;19.80;;;13.23;;
14078;SDS011;7115;50.150;8.568;2023-05-16T02:11:36;21.00;;;14.17;;
14078;SDS011;7115;50.150;8.568;2023-05-16T02:14:04;18.57;;;13.90;;
14078;SDS011;7115;50.150;8.568;2023-05-16T02:16:31;19.70;;;13.47;;
14078;SDS011;7115;50.150;8.568;2023-05-16T02:18:59;21.10;;;13.43;;
14078;SDS011;7115;50.150;8.568;2023-05-16T02:21:27;17.53;;;13.50;;
14078;SDS011;7115;50.150;8.568;2023-05-16T02:23:53;17.07;;;12.53;;
14078;SDS011;7115;50.150;8.568;2023-05-16T02:26:20;17.40;;;12.80;;
14078;SDS011;7115;50.150;8.568;2023-05-16T02:28:47;17.93;;;13.73;;
14078;SDS011;7115;50.150;8.568;2023-05-16T02:31:25;16.77;;;13.33;;
14078;SDS011;7115;50.150;8.568;2023-05-16T02:33:52;20.63;;;14.47;;
14078;SDS011;7115;50.150;8.568;2023-05-16T02:36:19;20.37;;;14.23;;
14078;SDS011;7115;50.150;8.568;2023-05-16T02:38:46;19.97;;;13.43;;
14078;SDS011;7115;50.150;8.568;2023-05-16T02:41:13;20.27;;;14.27;;
14078;SDS011;7115;50.150;8.568;2023-05-16T02:43:40;19.10;;;13.33;;
14078;SDS011;7115;50.150;8.568;2023-05-16T02:46:22;15.97;;;13.00;;
14078;SDS011;7115;50.150;8.568;2023-05-16T02:48:51;16.53;;;12.33;;
14078;SDS011;7115;50.150;8.568;2023-05-16T02:51:18;21.60;;;13.97;;
14078;SDS011;7115;50.150;8.568;2023-05-16T02:53:45;22.97;;;14.73;;
14078;SDS011;7115;50.150;8.568;2023-05-16T02:56:13;18.37;;;13.60;;
14078;SDS011;7115;50.150;8.568;2023-05-16T02:58:40;20.60;;;14.63;;
14078;SDS011;7115;50.150;8.568;2023-05-16T03:01:07;19.70;;;14.10;;
14078;SDS011;7115;50.150;8.568;2023-05-16T03:03:34;19.83;;;14.13;;
14078;SDS011;7115;50.150;8.568;2023-05-16T03:06:03;20.27;;;14.13;;
14078;SDS011;7115;50.150;8.568;2023-05-16T03:08:31;20.60;;;13.23;;
14078;SDS011;7115;50.150;8.568;2023-05-16T03:10:58;18.83;;;14.20;;
14078;SDS011;7115;50.150;8.568;2023-05-16T03:13:25;22.93;;;14.50;;
14078;SDS011;7115;50.150;8.568;2023-05-16T03:15:52;20.23;;;14.90;;
14078;SDS011;7115;50.150;8.568;2023-05-16T03:18:19;19.10;;;14.00;;
14078;SDS011;7115;50.150;8.568;2023-05-16T03:20:46;19.97;;;13.50;;
14078;SDS011;7115;50.150;8.568;2023-05-16T03:23:14;19.97;;;14.00;;
14078;SDS011;7115;50.150;8.568;2023-05-16T03:25:41;18.57;;;12.67;;
14078;SDS011;7115;50.150;8.568;2023-05-16T03:28:08;21.50;;;14.37;;
14078;SDS011;7115;50.150;8.568;2023-05-16T03:30:35;18.43;;;13.23;;
14078;SDS011;7115;50.150;8.568;2023-05-16T03:33:02;17.97;;;13.30;;
14078;SDS011;7115;50.150;8.568;2023-05-16T03:35:29;19.43;;;14.27;;
14078;SDS011;7115;50.150;8.568;2023-05-16T03:37:57;18.67;;;13.83;;
14078;SDS011;7115;50.150;8.568;2023-05-16T03:40:25;17.20;;;13.33;;
14078;SDS011;7115;50.150;8.568;2023-05-16T03:42:52;19.23;;;12.87;;
14078;SDS011;7115;50.150;8.568;2023-05-16T03:45:19;21.20;;;14.27;;
14078;SDS011;7115;50.150;8.568;2023-05-16T03:47:47;23.13;;;13.33;;
14078;SDS011;7115;50.150;8.568;2023-05-16T03:50:14;19.00;;;13.50;;
14078;SDS011;7115;50.150;8.568;2023-05-16T03:52:41;20.47;;;14.23;;
14078;SDS011;7115;50.150;8.568;2023-05-16T03:55:08;20.00;;;13.23;;
14078;SDS011;7115;50.150;8.568;2023-05-16T03:57:37;21.93;;;13.50;;
14078;SDS011;7115;50.150;8.568;2023-05-16T04:00:04;18.13;;;12.40;;
14078;SDS011;7115;50.150;8.568;2023-05-16T04:02:33;21.50;;;12.00;;
14078;SDS011;7115;50.150;8.568;2023-05-16T04:05:00;22.80;;;12.30;;
14078;SDS011;7115;50.150;8.568;2023-05-16T04:07:27;18.57;;;11.27;;
14078;SDS011;7115;50.150;8.568;2023-05-16T04:09:54;14.40;;;10.13;;
14078;SDS011;7115;50.150;8.568;2023-05-16T04:12:21;19.10;;;11.70;;
14078;SDS011;7115;50.150;8.568;2023-05-16T04:14:49;17.90;;;11.53;;
14078;SDS011;7115;50.150;8.568;2023-05-16T04:17:16;18.37;;;11.50;;
14078;SDS011;7115;50.150;8.568;2023-05-16T04:19:43;19.60;;;11.53;;
14078;SDS011;7115;50.150;8.568;2023-05-16T04:22:10;20.73;;;11.77;;
14078;SDS011;7115;50.150;8.568;2023-05-16T04:24:37;15.47;;;9.67;;
14078;SDS011;7115;50.150;8.568;2023-05-16T04:27:04;20.50;;;11.07;;
14078;SDS011;7115;50.150;8.568;2023-05-16T04:29:35;12.13;;;8.23;;
14078;SDS011;7115;50.150;8.568;2023-05-16T04:32:04;12.50;;;7.57;;
14078;SDS011;7115;50.150;8.568;2023-05-16T04:34:32;12.27;;;6.40;;
14078;SDS011;7115;50.150;8.568;2023-05-16T04:37:05;11.70;;;6.63;;
14078;SDS011;7115;50.150;8.568;2023-05-16T04:39:33;9.10;;;6.13;;
14078;SDS011;7115;50.150;8.568;2023-05-16T04:42:00;9.43;;;6.87;;
14078;SDS011;7115;50.150;8.568;2023-05-16T04:44:28;13.20;;;6.30;;
14078;SDS011;7115;50.150;8.568;2023-05-16T04:46:55;11.23;;;6.07;;
14078;SDS011;7115;50.150;8.568;2023-05-16T04:49:23;10.37;;;5.80;;
14078;SDS011;7115;50.150;8.568;2023-05-16T04:51:50;8.80;;;5.77;;
14078;SDS011;7115;50.150;8.568;2023-05-16T04:54:17;9.93;;;5.40;;
14078;SDS011;7115;50.150;8.568;2023-05-16T04:56:44;7.43;;;5.17;;
14078;SDS011;7115;50.150;8.568;2023-05-16T04:59:11;8.37;;;4.97;;
14078;SDS011;7115;50.150;8.568;2023-05-16T05:01:38;6.33;;;4.53;;
14078;SDS011;7115;50.150;8.568;2023-05-16T05:04:05;7.60;;;5.00;;
14078;SDS011;7115;50.150;8.568;2023-05-16T05:06:33;8.43;;;4.57;;
14078;SDS011;7115;50.150;8.568;2023-05-16T05:09:00;6.50;;;3.37;;
14078;SDS011;7115;50.150;8.568;2023-05-16T05:11:27;3.97;;;2.80;;
14078;SDS011;7115;50.150;8.568;2023-05-16T05:13:54;3.30;;;2.57;;
14078;SDS011;7115;50.150;8.568;2023-05-16T05:16:21;2.63;;;2.40;;
14078;SDS011;7115;50.150;8.568;2023-05-16T05:18:47;2.53;;;2.10;;
14078;SDS011;7115;50.150;8.568;2023-05-16T05:21:14;4.33;;;1.97;;
14078;SDS011;7115;50.150;8.568;2023-05-16T05:23:43;2.27;;;1.90;;
14078;SDS011;7115;50.150;8.568;2023-05-16T05:26:10;2.17;;;1.70;;
14078;SDS011;7115;50.150;8.568;2023-05-16T05:28:37;4.37;;;1.80;;
14078;SDS011;7115;50.150;8.568;2023-05-16T05:31:05;2.10;;;1.60;;
14078;SDS011;7115;50.150;8.568;2023-05-16T05:33:33;2.83;;;2.00;;
14078;SDS011;7115;50.150;8.568;2023-05-16T05:36:00;2.70;;;2.27;;
14078;SDS011;7115;50.150;8.568;2023-05-16T05:38:29;3.93;;;2.20;;
14078;SDS011;7115;50.150;8.568;2023-05-16T05:40:57;2.90;;;2.03;;
14078;SDS011;7115;50.150;8.568;2023-05-16T05:43:24;2.43;;;2.10;;
14078;SDS011;7115;50.150;8.568;2023-05-16T05:45:51;3.63;;;1.93;;
14078;SDS011;7115;50.150;8.568;2023-05-16T05:48:19;3.10;;;1.70;;
14078;SDS011;7115;50.150;8.568;2023-05-16T05:50:46;3.00;;;1.77;;
14078;SDS011;7115;50.150;8.568;2023-05-16T05:53:12;3.50;;;1.17;;
14078;SDS011;7115;50.150;8.568;2023-05-16T05:55:39;1.27;;;0.90;;
14078;SDS011;7115;50.150;8.568;2023-05-16T05:58:08;1.20;;;1.07;;
14078;SDS011;7115;50.150;8.568;2023-05-16T06:00:35;1.63;;;1.20;;
14078;SDS011;7115;50.150;8.568;2023-05-16T06:03:02;1.20;;;1.00;;
14078;SDS011;7115;50.150;8.568;2023-05-16T06:05:30;1.60;;;0.50;;
14078;SDS011;7115;50.150;8.568;2023-05-16T06:07:57;1.00;;;0.90;;
14078;SDS011;7115;50.150;8.568;2023-05-16T06:10:24;1.80;;;0.70;;
14078;SDS011;7115;50.150;8.568;2023-05-16T06:12:51;1.00;;;0.63;;
14078;SDS011;7115;50.150;8.568;2023-05-16T06:15:19;1.30;;;0.40;;
14078;SDS011;7115;50.150;8.568;2023-05-16T06:17:46;0.50;;;0.50;;
14078;SDS011;7115;50.150;8.568;2023-05-16T06:20:13;3.20;;;0.50;;
14078;SDS011;7115;50.150;8.568;2023-05-16T06:22:40;2.00;;;0.50;;
14078;SDS011;7115;50.150;8.568;2023-05-16T06:25:08;0.40;;;0.40;;
14078;SDS011;7115;50.150;8.568;2023-05-16T06:27:35;0.53;;;0.47;;
14078;SDS011;7115;50.150;8.568;2023-05-16T06:30:02;1.03;;;0.57;;
14078;SDS011;7115;50.150;8.568;2023-05-16T06:32:31;0.47;;;0.33;;
14078;SDS011;7115;50.150;8.568;2023-05-16T06:34:58;0.60;;;0.30;;
14078;SDS011;7115;50.150;8.568;2023-05-16T06:37:25;0.40;;;0.30;;
14078;SDS011;7115;50.150;8.568;2023-05-16T06:39:52;0.30;;;0.30;;
14078;SDS011;7115;50.150;8.568;2023-05-16T06:42:19;0.93;;;0.40;;
14078;SDS011;7115;50.150;8.568;2023-05-16T06:44:46;1.03;;;0.30;;
14078;SDS011;7115;50.150;8.568;2023-05-16T06:47:13;0.30;;;0.30;;
14078;SDS011;7115;50.150;8.568;2023-05-16T06:49:41;0.30;;;0.30;;
14078;SDS011;7115;50.150;8.568;2023-05-16T06:52:08;0.43;;;0.40;;
14078;SDS011;7115;50.150;8.568;2023-05-16T06:54:35;0.40;;;0.30;;
14078;SDS011;7115;50.150;8.568;2023-05-16T06:57:02;1.37;;;1.00;;
14078;SDS011;7115;50.150;8.568;2023-05-16T06:59:30;0.50;;;0.43;;
14078;SDS011;7115;50.150;8.568;2023-05-16T07:01:57;0.30;;;0.30;;
14078;SDS011;7115;50.150;8.568;2023-05-16T07:04:24;0.77;;;0.50;;
14078;SDS011;7115;50.150;8.568;2023-05-16T07:06:53;0.30;;;0.30;;
14078;SDS011;7115;50.150;8.568;2023-05-16T07:09:20;0.30;;;0.30;;
14078;SDS011;7115;50.150;8.568;2023-05-16T07:11:47;1.03;;;0.50;;
14078;SDS011;7115;50.150;8.568;2023-05-16T07:14:14;1.27;;;0.60;;
14078;SDS011;7115;50.150;8.568;2023-05-16T07:16:41;1.57;;;0.27;;
14078;SDS011;7115;50.150;8.568;2023-05-16T07:19:08;0.20;;;0.20;;
14078;SDS011;7115;50.150;8.568;2023-05-16T07:21:35;0.20;;;0.20;;
14078;SDS011;7115;50.150;8.568;2023-05-16T07:24:04;0.30;;;0.20;;
14078;SDS011;7115;50.150;8.568;2023-05-16T07:26:32;0.67;;;0.30;;
14078;SDS011;7115;50.150;8.568;2023-05-16T07:28:59;1.50;;;0.80;;
14078;SDS011;7115;50.150;8.568;2023-05-16T07:31:28;0.47;;;0.40;;
14078;SDS011;7115;50.150;8.568;2023-05-16T07:33:55;0.37;;;0.20;;
14078;SDS011;7115;50.150;8.568;2023-05-16T07:36:22;0.10;;;0.10;;
14078;SDS011;7115;50.150;8.568;2023-05-16T07:38:49;0.27;;;0.20;;
14078;SDS011;7115;50.150;8.568;2023-05-16T07:41:17;0.53;;;0.40;;
14078;SDS011;7115;50.150;8.568;2023-05-16T07:43:44;1.00;;;0.20;;
14078;SDS011;7115;50.150;8.568;2023-05-16T07:46:11;0.10;;;0.10;;
14078;SDS011;7115;50.150;8.568;2023-05-16T07:48:39;0.80;;;0.27;;
14078;SDS011;7115;50.150;8.568;2023-05-16T07:51:06;0.23;;;0.13;;
14078;SDS011;7115;50.150;8.568;2023-05-16T07:53:33;0.57;;;0.20;;
14078;SDS011;7115;50.150;8.568;2023-05-16T07:56:03;0.30;;;0.30;;
14078;SDS011;7115;50.150;8.568;2023-05-16T07:58:35;0.87;;;0.20;;
14078;SDS011;7115;50.150;8.568;2023-05-16T08:01:04;0.70;;;0.27;;
14078;SDS011;7115;50.150;8.568;2023-05-16T08:03:31;0.47;;;0.20;;
14078;SDS011;7115;50.150;8.568;2023-05-16T08:05:58;0.20;;;0.20;;
14078;SDS011;7115;50.150;8.568;2023-05-16T08:08:25;3.03;;;0.50;;
14078;SDS011;7115;50.150;8.568;2023-05-16T08:10:52;0.33;;;0.30;;
14078;SDS011;7115;50.150;8.568;2023-05-16T08:13:19;0.43;;;0.43;;
14078;SDS011;7115;50.150;8.568;2023-05-16T08:15:48;0.53;;;0.40;;
14078;SDS011;7115;50.150;8.568;2023-05-16T08:18:15;0.60;;;0.33;;
14078;SDS011;7115;50.150;8.568;2023-05-16T08:20:44;2.40;;;0.50;;
14078;SDS011;7115;50.150;8.568;2023-05-16T08:23:11;1.63;;;0.30;;
14078;SDS011;7115;50.150;8.568;2023-05-16T08:25:39;1.63;;;0.50;;
14078;SDS011;7115;50.150;8.568;2023-05-16T08:28:06;6.90;;;1.43;;
14078;SDS011;7115;50.150;8.568;2023-05-16T08:30:33;2.30;;;0.50;;
14078;SDS011;7115;50.150;8.568;2023-05-16T08:33:02;0.40;;;0.37;;
14078;SDS011;7115;50.150;8.568;2023-05-16T08:35:30;1.37;;;0.50;;
14078;SDS011;7115;50.150;8.568;2023-05-16T08:37:58;1.00;;;0.70;;
14078;SDS011;7115;50.150;8.568;2023-05-16T08:40:25;1.87;;;0.57;;
14078;SDS011;7115;50.150;8.568;2023-05-16T08:42:54;1.80;;;0.43;;
14078;SDS011;7115;50.150;8.568;2023-05-16T08:45:22;0.53;;;0.50;;
14078;SDS011;7115;50.150;8.568;2023-05-16T08:47:50;1.07;;;0.40;;
14078;SDS011;7115;50.150;8.568;2023-05-16T08:50:24;2.07;;;0.73;;
14078;SDS011;7115;50.150;8.568;2023-05-16T08:52:54;1.27;;;0.40;;
14078;SDS011;7115;50.150;8.568;2023-05-16T08:55:22;1.97;;;0.40;;
14078;SDS011;7115;50.150;8.568;2023-05-16T08:57:52;1.23;;;0.70;;
14078;SDS011;7115;50.150;8.568;2023-05-16T09:00:20;3.73;;;1.20;;
14078;SDS011;7115;50.150;8.568;2023-05-16T09:02:48;0.70;;;0.40;;
14078;SDS011;7115;50.150;8.568;2023-05-16T09:05:16;0.50;;;0.40;;
14078;SDS011;7115;50.150;8.568;2023-05-16T09:07:44;1.93;;;0.50;;
14078;SDS011;7115;50.150;8.568;2023-05-16T09:10:12;2.13;;;0.60;;
14078;SDS011;7115;50.150;8.568;2023-05-16T09:12:39;1.53;;;0.70;;
14078;SDS011;7115;50.150;8.568;2023-05-16T09:15:07;2.73;;;0.70;;
14078;SDS011;7115;50.150;8.568;2023-05-16T09:17:37;1.40;;;0.63;;
14078;SDS011;7115;50.150;8.568;2023-05-16T09:20:09;1.17;;;0.67;;
14078;SDS011;7115;50.150;8.568;2023-05-16T09:22:37;1.33;;;0.80;;
14078;SDS011;7115;50.150;8.568;2023-05-16T09:25:06;2.17;;;0.70;;
14078;SDS011;7115;50.150;8.568;2023-05-16T09:27:53;0.87;;;0.57;;
14078;SDS011;7115;50.150;8.568;2023-05-16T09:30:21;2.53;;;0.60;;
14078;SDS011;7115;50.150;8.568;2023-05-16T09:32:52;0.60;;;0.50;;
14078;SDS011;7115;50.150;8.568;2023-05-16T09:35:19;1.70;;;0.50;;
14078;SDS011;7115;50.150;8.568;2023-05-16T09:38:11;3.60;;;0.53;;
14078;SDS011;7115;50.150;8.568;2023-05-16T09:40:42;1.57;;;0.63;;
14078;SDS011;7115;50.150;8.568;2023-05-16T09:43:11;1.70;;;1.00;;
14078;SDS011;7115;50.150;8.568;2023-05-16T09:45:44;1.33;;;0.80;;
14078;SDS011;7115;50.150;8.568;2023-05-16T09:48:13;2.57;;;0.70;;
14078;SDS011;7115;50.150;8.568;2023-05-16T09:50:45;3.73;;;0.93;;
14078;SDS011;7115;50.150;8.568;2023-05-16T09:53:15;2.30;;;0.80;;
14078;SDS011;7115;50.150;8.568;2023-05-16T09:55:43;6.40;;;1.07;;
14078;SDS011;7115;50.150;8.568;2023-05-16T09:58:10;4.33;;;1.47;;
14078;SDS011;7115;50.150;8.568;2023-05-16T10:00:37;3.03;;;1.07;;
14078;SDS011;7115;50.150;8.568;2023-05-16T10:03:06;6.90;;;1.43;;
14078;SDS011;7115;50.150;8.568;2023-05-16T10:05:34;2.07;;;0.90;;
14078;SDS011;7115;50.150;8.568;2023-05-16T10:08:02;2.27;;;1.33;;
14078;SDS011;7115;50.150;8.568;2023-05-16T10:10:30;5.63;;;1.37;;
14078;SDS011;7115;50.150;8.568;2023-05-16T10:13:02;5.60;;;1.40;;
14078;SDS011;7115;50.150;8.568;2023-05-16T10:15:32;3.40;;;1.10;;
14078;SDS011;7115;50.150;8.568;2023-05-16T10:18:01;4.20;;;1.13;;
14078;SDS011;7115;50.150;8.568;2023-05-16T10:20:33;6.10;;;1.63;;
14078;SDS011;7115;50.150;8.568;2023-05-16T10:23:00;9.73;;;1.30;;
14078;SDS011;7115;50.150;8.568;2023-05-16T10:25:31;4.30;;;1.37;;
14078;SDS011;7115;50.150;8.568;2023-05-16T10:27:59;2.53;;;1.10;;
14078;SDS011;7115;50.150;8.568;2023-05-16T10:30:32;4.37;;;1.20;;
14078;SDS011;7115;50.150;8.568;2023-05-16T10:33:00;5.17;;;1.23;;
14078;SDS011;7115;50.150;8.568;2023-05-16T10:35:27;4.77;;;1.40;;
14078;SDS011;7115;50.150;8.568;2023-05-16T10:37:55;2.30;;;0.90;;
14078;SDS011;7115;50.150;8.568;2023-05-16T10:40:24;3.00;;;0.93;;
14078;SDS011;7115;50.150;8.568;2023-05-16T10:42:55;6.07;;;1.30;;
14078;SDS011;7115;50.150;8.568;2023-05-16T10:45:24;9.40;;;1.30;;
14078;SDS011;7115;50.150;8.568;2023-05-16T10:47:52;4.03;;;1.07;;
14078;SDS011;7115;50.150;8.568;2023-05-16T10:50:30;8.17;;;1.63;;
14078;SDS011;7115;50.150;8.568;2023-05-16T10:53:10;2.93;;;1.13;;
14078;SDS011;7115;50.150;8.568;2023-05-16T10:55:48;6.83;;;1.37;;
14078;SDS011;7115;50.150;8.568;2023-05-16T10:58:23;3.50;;;1.10;;
14078;SDS011;7115;50.150;8.568;2023-05-16T11:01:14;8.60;;;2.00;;
14078;SDS011;7115;50.150;8.568;2023-05-16T11:04:03;5.07;;;1.20;;
14078;SDS011;7115;50.150;8.568;2023-05-16T11:06:42;8.13;;;1.20;;
14078;SDS011;7115;50.150;8.568;2023-05-16T11:09:24;4.60;;;1.20;;
14078;SDS011;7115;50.150;8.568;2023-05-16T11:11:54;4.83;;;1.00;;
14078;SDS011;7115;50.150;8.568;2023-05-16T11:14:26;7.33;;;1.00;;
14078;SDS011;7115;50.150;8.568;2023-05-16T11:17:00;5.90;;;1.03;;
14078;SDS011;7115;50.150;8.568;2023-05-16T11:19:29;6.10;;;1.20;;
14078;SDS011;7115;50.150;8.568;2023-05-16T11:22:11;5.73;;;1.20;;
14078;SDS011;7115;50.150;8.568;2023-05-16T11:24:50;6.80;;;1.33;;
14078;SDS011;7115;50.150;8.568;2023-05-16T11:27:19;4.67;;;0.90;;
14078;SDS011;7115;50.150;8.568;2023-05-16T11:29:48;8.33;;;1.30;;
14078;SDS011;7115;50.150;8.568;2023-05-16T11:32:19;6.23;;;1.23;;
14078;SDS011;7115;50.150;8.568;2023-05-16T11:34:50;5.37;;;1.33;;
14078;SDS011;7115;50.150;8.568;2023-05-16T11:37:17;3.43;;;1.17;;
14078;SDS011;7115;50.150;8.568;2023-05-16T11:39:45;4.27;;;1.10;;
14078;SDS011;7115;50.150;8.568;2023-05-16T11:42:12;5.67;;;0.97;;
14078;SDS011;7115;50.150;8.568;2023-05-16T11:44:39;6.80;;;1.20;;
14078;SDS011;7115;50.150;8.568;2023-05-16T11:47:07;4.80;;;1.10;;
14078;SDS011;7115;50.150;8.568;2023-05-16T11:49:35;3.33;;;1.00;;
14078;SDS011;7115;50.150;8.568;2023-05-16T11:52:03;6.37;;;1.60;;
14078;SDS011;7115;50.150;8.568;2023-05-16T11:54:30;5.17;;;1.07;;
14078;SDS011;7115;50.150;8.568;2023-05-16T11:56:57;3.83;;;1.00;;
14078;SDS011;7115;50.150;8.568;2023-05-16T11:59:25;3.53;;;1.13;;
14078;SDS011;7115;50.150;8.568;2023-05-16T12:01:52;3.03;;;1.17;;
14078;SDS011;7115;50.150;8.568;2023-05-16T12:04:19;3.23;;;0.90;;
14078;SDS011;7115;50.150;8.568;2023-05-16T12:06:58;4.10;;;0.90;;
14078;SDS011;7115;50.150;8.568;2023-05-16T12:09:26;6.10;;;0.90;;
14078;SDS011;7115;50.150;8.568;2023-05-16T12:11:53;6.03;;;1.03;;
14078;SDS011;7115;50.150;8.568;2023-05-16T12:14:20;5.20;;;1.43;;
14078;SDS011;7115;50.150;8.568;2023-05-16T12:16:48;3.03;;;0.80;;
14078;SDS011;7115;50.150;8.568;2023-05-16T12:19:18;4.23;;;0.90;;
14078;SDS011;7115;50.150;8.568;2023-05-16T12:21:46;5.10;;;1.40;;
14078;SDS011;7115;50.150;8.568;2023-05-16T12:24:18;2.20;;;0.80;;
14078;SDS011;7115;50.150;8.568;2023-05-16T12:26:46;1.97;;;0.90;;
14078;SDS011;7115;50.150;8.568;2023-05-16T12:29:13;4.13;;;0.70;;
14078;SDS011;7115;50.150;8.568;2023-05-16T12:31:39;3.27;;;0.80;;
14078;SDS011;7115;50.150;8.568;2023-05-16T12:34:16;8.80;;;1.50;;
14078;SDS011;7115;50.150;8.568;2023-05-16T12:36:44;2.30;;;0.70;;
14078;SDS011;7115;50.150;8.568;2023-05-16T12:39:15;4.07;;;0.83;;
14078;SDS011;7115;50.150;8.568;2023-05-16T12:41:44;3.93;;;0.90;;
14078;SDS011;7115;50.150;8.568;2023-05-16T12:44:12;4.60;;;0.73;;
14078;SDS011;7115;50.150;8.568;2023-05-16T12:46:42;3.13;;;0.80;;
14078;SDS011;7115;50.150;8.568;2023-05-16T12:49:11;6.27;;;1.03;;
14078;SDS011;7115;50.150;8.568;2023-05-16T12:51:39;3.73;;;0.83;;
14078;SDS011;7115;50.150;8.568;2023-05-16T12:54:07;4.93;;;0.83;;
14078;SDS011;7115;50.150;8.568;2023-05-16T12:56:37;7.73;;;1.27;;
14078;SDS011;7115;50.150;8.568;2023-05-16T12:59:04;2.27;;;0.80;;
14078;SDS011;7115;50.150;8.568;2023-05-16T13:01:32;7.70;;;0.90;;
14078;SDS011;7115;50.150;8.568;2023-05-16T13:04:00;2.37;;;0.70;;
14078;SDS011;7115;50.150;8.568;2023-05-16T13:06:28;3.10;;;0.90;;
14078;SDS011;7115;50.150;8.568;2023-05-16T13:09:10;3.33;;;0.77;;
14078;SDS011;7115;50.150;8.568;2023-05-16T13:11:39;4.57;;;0.80;;
14078;SDS011;7115;50.150;8.568;2023-05-16T13:14:06;3.10;;;0.60;;
14078;SDS011;7115;50.150;8.568;2023-05-16T13:16:33;5.07;;;1.00;;
14078;SDS011;7115;50.150;8.568;2023-05-16T13:19:00;4.50;;;2.43;;
14078;SDS011;7115;50.150;8.568;2023-05-16T13:21:28;3.80;;;0.83;;
14078;SDS011;7115;50.150;8.568;2023-05-16T13:23:56;2.90;;;1.00;;
14078;SDS011;7115;50.150;8.568;2023-05-16T13:26:24;5.13;;;0.70;;
14078;SDS011;7115;50.150;8.568;2023-05-16T13:28:54;3.33;;;0.93;;
14078;SDS011;7115;50.150;8.568;2023-05-16T13:31:21;5.73;;;1.00;;
14078;SDS011;7115;50.150;8.568;2023-05-16T13:33:48;1.73;;;0.90;;
14078;SDS011;7115;50.150;8.568;2023-05-16T13:36:16;3.53;;;0.90;;
14078;SDS011;7115;50.150;8.568;2023-05-16T13:38:43;2.60;;;0.70;;
14078;SDS011;7115;50.150;8.568;2023-05-16T13:41:10;4.23;;;0.70;;
14078;SDS011;7115;50.150;8.568;2023-05-16T13:43:36;2.90;;;0.77;;
14078;SDS011;7115;50.150;8.568;2023-05-16T13:46:05;15.73;;;1.57;;
14078;SDS011;7115;50.150;8.568;2023-05-16T13:48:32;5.80;;;1.00;;
14078;SDS011;7115;50.150;8.568;2023-05-16T13:50:59;2.30;;;0.70;;
14078;SDS011;7115;50.150;8.568;2023-05-16T13:53:26;3.87;;;0.67;;
14078;SDS011;7115;50.150;8.568;2023-05-16T13:55:53;4.07;;;0.50;;
14078;SDS011;7115;50.150;8.568;2023-05-16T13:58:20;5.47;;;0.77;;
14078;SDS011;7115;50.150;8.568;2023-05-16T14:00:47;4.53;;;0.80;;
14078;SDS011;7115;50.150;8.568;2023-05-16T14:03:16;1.87;;;0.60;;
14078;SDS011;7115;50.150;8.568;2023-05-16T14:05:43;4.53;;;0.80;;
14078;SDS011;7115;50.150;8.568;2023-05-16T14:08:10;2.30;;;0.60;;
14078;SDS011;7115;50.150;8.568;2023-05-16T14:10:37;3.23;;;0.83;;
14078;SDS011;7115;50.150;8.568;2023-05-16T14:13:04;2.93;;;0.70;;
14078;SDS011;7115;50.150;8.568;2023-05-16T14:15:31;2.30;;;0.60;;
14078;SDS011;7115;50.150;8.568;2023-05-16T14:17:58;9.63;;;4.27;;
14078;SDS011;7115;50.150;8.568;2023-05-16T14:20:27;6.07;;;1.00;;
14078;SDS011;7115;50.150;8.568;2023-05-16T14:22:53;5.83;;;0.73;;
14078;SDS011;7115;50.150;8.568;2023-05-16T14:25:21;5.50;;;0.80;;
14078;SDS011;7115;50.150;8.568;2023-05-16T14:27:48;1.97;;;0.50;;
14078;SDS011;7115;50.150;8.568;2023-05-16T14:30:16;3.83;;;0.87;;
14078;SDS011;7115;50.150;8.568;2023-05-16T14:32:43;7.33;;;0.87;;
14078;SDS011;7115;50.150;8.568;2023-05-16T14:35:10;1.50;;;0.60;;
14078;SDS011;7115;50.150;8.568;2023-05-16T14:37:38;3.40;;;0.90;;
14078;SDS011;7115;50.150;8.568;2023-05-16T14:40:06;5.10;;;0.93;;
14078;SDS011;7115;50.150;8.568;2023-05-16T14:42:34;2.23;;;0.60;;
14078;SDS011;7115;50.150;8.568;2023-05-16T14:45:01;4.10;;;0.67;;
14078;SDS011;7115;50.150;8.568;2023-05-16T14:47:28;4.67;;;0.80;;
14078;SDS011;7115;50.150;8.568;2023-05-16T14:49:56;7.27;;;0.83;;
14078;SDS011;7115;50.150;8.568;2023-05-16T14:52:23;2.50;;;0.87;;
14078;SDS011;7115;50.150;8.568;2023-05-16T14:54:52;3.03;;;1.00;;
14078;SDS011;7115;50.150;8.568;2023-05-16T14:57:18;5.20;;;1.00;;
14078;SDS011;7115;50.150;8.568;2023-05-16T14:59:45;2.10;;;0.67;;
14078;SDS011;7115;50.150;8.568;2023-05-16T15:02:13;4.60;;;0.70;;